This is the latest recevied weather packets stored in our database for station/object WB5LFS-1. If no packets are shown the sender has not sent any weather packets the latest 10 day(s).
| Time | Temp. | Humidity | Pressure | Rain* | Wind** | Luminosity | Snow |
|---|---|---|---|---|---|---|---|
| 1777609616 | 12.78° C | 58% | 1013.8 hPa | 0 mm | - | - | - |
| 1777608716 | 12.78° C | 61% | 1013.6 hPa | 0 mm | - | - | - |
| 1777607816 | 13.33° C | 60% | 1013.4 hPa | 0 mm | - | - | - |
| 1777606916 | 13.33° C | 58% | 1013.5 hPa | 0 mm | - | - | - |
| 1777606016 | 13.89° C | 56% | 1013.4 hPa | 0 mm | - | - | - |
| 1777605116 | 14.44° C | 56% | 1013.2 hPa | 0 mm | - | - | - |
| 1777604216 | 14.44° C | 53% | 1013.1 hPa | 0 mm | - | - | - |
| 1777603316 | 15° C | 53% | 1012.9 hPa | 0 mm | - | - | - |
| 1777602416 | 15.56° C | 51% | 1012.6 hPa | 0 mm | - | - | - |
| 1777601516 | 16.11° C | 50% | 1012.5 hPa | 0 mm | - | - | - |
| 1777600616 | 16.11° C | 50% | 1012.1 hPa | 0 mm | - | - | - |
| 1777599716 | 16.11° C | 65% | 1011.6 hPa | 0 mm | - | - | - |
| 1777598816 | 16.11° C | 70% | 1011.4 hPa | 0 mm | - | - | - |
| 1777597916 | 16.67° C | 69% | 1011.3 hPa | 0 mm | - | - | - |
| 1777597016 | 17.22° C | 64% | 1010.9 hPa | 0 mm | - | - | - |
| 1777596116 | 16.67° C | 63% | 1010.2 hPa | 0 mm | - | - | - |
| 1777595216 | 16.11° C | 71% | 1009.8 hPa | 0 mm | - | - | - |
| 1777594316 | 16.67° C | 70% | 1009.2 hPa | 0 mm | - | - | - |
| 1777593416 | 17.22° C | 67% | 1009.2 hPa | 0 mm | - | - | - |
| 1777592516 | 17.78° C | 66% | 1009.1 hPa | 0 mm | - | - | - |
| 1777591616 | 18.89° C | 63% | 1008.9 hPa | 0 mm | - | - | - |
| 1777590716 | 20° C | 57% | 1008.4 hPa | 0 mm | - | - | - |
| 1777589816 | 20.56° C | 55% | 1008.3 hPa | 0 mm | - | - | - |
| 1777588916 | 20.56° C | 55% | 1008.2 hPa | 0 mm | - | - | - |
| 1777588016 | 21.11° C | 50% | 1008.3 hPa | 0 mm | - | - | - |
* Rain latest hour (hover to see other rain measurements)
** Current wind speed in m/s (hover to see current wind gust speed)